createdAt,value
2022-10-27T00:00:07.364Z,17.40
2022-10-27T00:02:33.905Z,17.40
2022-10-27T00:05:00.471Z,17.40
2022-10-27T00:07:26.997Z,17.40
2022-10-27T00:09:53.593Z,17.30
2022-10-27T00:12:20.172Z,17.30
2022-10-27T00:14:46.735Z,17.30
2022-10-27T00:17:13.271Z,17.30
2022-10-27T00:19:39.850Z,17.30
2022-10-27T00:22:06.400Z,17.30
2022-10-27T00:24:32.937Z,17.30
2022-10-27T00:26:59.479Z,17.30
2022-10-27T00:29:26.066Z,17.20
2022-10-27T00:31:52.610Z,17.20
2022-10-27T00:34:19.115Z,17.20
2022-10-27T00:36:45.650Z,17.20
2022-10-27T00:39:12.186Z,17.20
2022-10-27T00:41:41.643Z,17.20
2022-10-27T00:44:40.182Z,17.10
2022-10-27T00:47:09.537Z,17.10
2022-10-27T00:49:47.864Z,17.10
2022-10-27T00:52:41.383Z,17.10
2022-10-27T00:55:15.631Z,17.10
2022-10-27T00:57:46.482Z,17.10
2022-10-27T01:00:13.656Z,17.00
2022-10-27T01:02:40.241Z,17.00
2022-10-27T01:05:17.632Z,17.00
2022-10-27T01:07:45.900Z,17.00
2022-10-27T01:10:13.370Z,17.00
2022-10-27T01:12:40.240Z,17.00
2022-10-27T01:15:07.813Z,17.00
2022-10-27T01:17:52.497Z,17.00
2022-10-27T01:20:37.125Z,17.00
2022-10-27T01:23:28.669Z,16.90
2022-10-27T01:26:19.508Z,17.00
2022-10-27T01:29:10.188Z,16.90
2022-10-27T01:31:45.853Z,16.90
2022-10-27T01:34:33.504Z,16.90
2022-10-27T01:37:21.931Z,16.90
2022-10-27T01:40:16.254Z,16.90
2022-10-27T01:42:49.538Z,16.90
2022-10-27T01:45:21.499Z,16.90
2022-10-27T01:47:48.911Z,16.90
2022-10-27T01:50:26.654Z,16.80
2022-10-27T01:52:53.443Z,16.80
2022-10-27T01:55:44.658Z,16.80
2022-10-27T01:58:14.114Z,16.80
2022-10-27T02:00:50.436Z,16.80
2022-10-27T02:03:23.367Z,16.80
2022-10-27T02:06:09.816Z,16.80
2022-10-27T02:08:44.545Z,16.80
2022-10-27T02:11:12.228Z,16.80
2022-10-27T02:13:42.628Z,16.70
2022-10-27T02:16:14.151Z,16.70
2022-10-27T02:18:52.495Z,16.70
2022-10-27T02:21:19.771Z,16.70
2022-10-27T02:23:46.461Z,16.70
2022-10-27T02:26:35.852Z,16.70
2022-10-27T02:29:06.311Z,16.70
2022-10-27T02:31:43.395Z,16.70
2022-10-27T02:34:10.982Z,16.70
2022-10-27T02:36:37.679Z,16.70
2022-10-27T02:39:04.219Z,16.70
2022-10-27T02:41:30.750Z,16.60
2022-10-27T02:43:57.312Z,16.60
2022-10-27T02:46:24.024Z,16.60
2022-10-27T02:48:50.531Z,16.60
2022-10-27T02:51:17.071Z,16.60
2022-10-27T02:53:43.595Z,16.60
2022-10-27T02:56:10.354Z,16.60
2022-10-27T02:58:36.967Z,16.60
2022-10-27T03:01:03.705Z,16.60
2022-10-27T03:03:30.367Z,16.60
2022-10-27T03:05:56.900Z,16.60
2022-10-27T03:08:23.567Z,16.60
2022-10-27T03:10:50.192Z,16.60
2022-10-27T03:13:16.831Z,16.60
2022-10-27T03:15:46.676Z,16.50
2022-10-27T03:18:13.836Z,16.50
2022-10-27T03:20:40.363Z,16.50
2022-10-27T03:23:06.944Z,16.50
2022-10-27T03:25:33.610Z,16.50
2022-10-27T03:28:00.104Z,16.50
2022-10-27T03:30:26.683Z,16.50
2022-10-27T03:32:53.468Z,16.50
2022-10-27T03:35:21.054Z,16.50
2022-10-27T03:37:55.928Z,16.50
2022-10-27T03:40:22.998Z,16.50
2022-10-27T03:42:49.707Z,16.40
2022-10-27T03:45:16.669Z,16.40
2022-10-27T03:47:43.262Z,16.40
2022-10-27T03:50:09.952Z,16.40
2022-10-27T03:52:36.528Z,16.40
2022-10-27T03:55:03.198Z,16.40
2022-10-27T03:57:29.698Z,16.40
2022-10-27T03:59:56.243Z,16.30
2022-10-27T04:02:22.792Z,16.30
2022-10-27T04:04:49.384Z,16.30
2022-10-27T04:07:15.920Z,16.30
2022-10-27T04:09:42.462Z,16.30
2022-10-27T04:12:09.078Z,16.30
2022-10-27T04:14:35.900Z,16.30
2022-10-27T04:17:02.556Z,16.30
2022-10-27T04:19:29.070Z,16.30
2022-10-27T04:21:55.637Z,16.30
2022-10-27T04:24:22.145Z,16.30
2022-10-27T04:26:48.704Z,16.30
2022-10-27T04:29:15.209Z,16.20
2022-10-27T04:31:41.743Z,16.20
2022-10-27T04:34:08.393Z,16.20
2022-10-27T04:36:34.957Z,16.20
2022-10-27T04:39:01.782Z,16.20
2022-10-27T04:41:28.308Z,16.20
2022-10-27T04:43:54.870Z,16.20
2022-10-27T04:46:21.791Z,16.20
2022-10-27T04:48:48.370Z,16.20
2022-10-27T04:51:18.057Z,16.10
2022-10-27T04:53:47.191Z,16.20
2022-10-27T04:56:13.819Z,16.10
2022-10-27T04:58:40.492Z,16.10
2022-10-27T05:01:08.683Z,16.10
2022-10-27T05:03:35.395Z,16.10
2022-10-27T05:06:02.233Z,16.10
2022-10-27T05:08:28.795Z,16.10
2022-10-27T05:10:55.376Z,16.10
2022-10-27T05:13:22.128Z,16.10
2022-10-27T05:15:48.776Z,16.10
2022-10-27T05:18:15.524Z,16.10
2022-10-27T05:20:42.121Z,16.10
2022-10-27T05:23:08.699Z,16.00
2022-10-27T05:25:35.279Z,16.00
2022-10-27T05:28:06.716Z,16.00
2022-10-27T05:30:33.932Z,16.00
2022-10-27T05:33:00.596Z,16.00
2022-10-27T05:35:27.183Z,16.00
2022-10-27T05:37:53.920Z,16.00
2022-10-27T05:40:20.571Z,16.00
2022-10-27T05:42:55.182Z,15.90
2022-10-27T05:45:23.722Z,16.00
2022-10-27T05:47:57.527Z,15.90
2022-10-27T05:50:24.204Z,15.90
2022-10-27T05:52:50.991Z,15.90
2022-10-27T05:55:17.688Z,15.90
2022-10-27T05:58:01.616Z,15.90
2022-10-27T06:00:34.852Z,15.90
2022-10-27T06:03:02.843Z,15.90
2022-10-27T06:05:31.148Z,15.90
2022-10-27T06:07:58.058Z,15.90
2022-10-27T06:10:25.520Z,15.80
2022-10-27T06:12:52.348Z,15.80
2022-10-27T06:15:18.915Z,15.80
2022-10-27T06:17:45.435Z,15.80
2022-10-27T06:20:12.206Z,15.80
2022-10-27T06:22:38.737Z,15.80
2022-10-27T06:25:05.731Z,15.80
2022-10-27T06:27:32.281Z,15.80
2022-10-27T06:29:58.853Z,15.80
2022-10-27T06:34:56.894Z,15.80
2022-10-27T06:37:23.494Z,15.80
2022-10-27T06:39:50.062Z,15.80
2022-10-27T06:42:16.606Z,15.80
2022-10-27T06:44:43.460Z,15.80
2022-10-27T06:47:10.070Z,15.70
2022-10-27T06:49:36.581Z,15.80
2022-10-27T06:52:03.123Z,15.70
2022-10-27T06:54:29.719Z,15.70
2022-10-27T06:56:56.256Z,15.70
2022-10-27T06:59:22.880Z,15.70
2022-10-27T07:01:49.540Z,15.70
2022-10-27T07:04:16.164Z,15.70
2022-10-27T07:06:42.758Z,15.70
2022-10-27T07:09:10.070Z,15.70
2022-10-27T07:11:37.291Z,15.70
2022-10-27T07:14:04.103Z,15.70
2022-10-27T07:16:34.052Z,15.70
2022-10-27T07:19:02.018Z,15.70
2022-10-27T07:21:29.265Z,15.60
2022-10-27T07:23:55.918Z,15.60
2022-10-27T07:26:22.664Z,15.70
2022-10-27T07:28:49.301Z,15.60
2022-10-27T07:31:15.904Z,15.60
2022-10-27T07:33:42.429Z,15.60
2022-10-27T07:36:09.017Z,15.70
2022-10-27T07:38:36.212Z,15.60
2022-10-27T07:41:02.752Z,15.60
2022-10-27T07:43:29.297Z,15.60
2022-10-27T07:45:55.883Z,15.60
2022-10-27T07:48:22.536Z,15.60
2022-10-27T07:53:20.618Z,15.60
2022-10-27T07:55:47.284Z,15.60
2022-10-27T07:58:16.039Z,15.60
2022-10-27T08:00:47.557Z,15.60
2022-10-27T08:03:19.700Z,15.60
2022-10-27T08:05:46.327Z,15.60
2022-10-27T08:08:14.447Z,15.60
2022-10-27T08:10:42.656Z,15.60
2022-10-27T08:13:10.601Z,15.60
2022-10-27T08:15:38.617Z,15.60
2022-10-27T08:18:06.265Z,15.60
2022-10-27T08:20:35.245Z,15.60
2022-10-27T08:23:05.079Z,15.60
2022-10-27T08:25:32.017Z,15.60
2022-10-27T08:27:59.193Z,15.60
2022-10-27T08:30:33.611Z,15.60
2022-10-27T08:33:03.445Z,15.60
2022-10-27T08:35:31.734Z,15.60
2022-10-27T08:38:11.245Z,15.60
2022-10-27T08:43:21.569Z,15.60
2022-10-27T08:45:59.326Z,15.60
2022-10-27T08:48:27.197Z,15.70
2022-10-27T08:50:54.009Z,15.60
2022-10-27T08:53:28.791Z,15.70
2022-10-27T08:56:03.291Z,15.70
2022-10-27T09:01:22.568Z,15.70
2022-10-27T09:03:55.035Z,15.70
2022-10-27T09:06:27.197Z,15.70
2022-10-27T09:09:08.265Z,15.70
2022-10-27T09:11:43.616Z,15.70
2022-10-27T09:14:13.125Z,15.70
2022-10-27T09:16:48.029Z,15.70
2022-10-27T09:19:29.175Z,15.70
2022-10-27T09:21:55.955Z,15.70
2022-10-27T09:24:26.352Z,15.70
2022-10-27T09:26:53.554Z,15.70
2022-10-27T09:29:22.519Z,15.70
2022-10-27T09:31:55.931Z,15.70
2022-10-27T09:34:40.258Z,15.70
2022-10-27T09:37:15.235Z,15.80
2022-10-27T09:39:46.481Z,15.80
2022-10-27T09:42:13.054Z,15.80
2022-10-27T09:44:39.986Z,15.80
2022-10-27T09:47:06.675Z,15.80
2022-10-27T09:49:39.301Z,15.80
2022-10-27T09:52:42.521Z,15.80
2022-10-27T09:55:09.563Z,15.80
2022-10-27T09:57:39.430Z,15.80
2022-10-27T10:00:16.418Z,15.80
2022-10-27T10:05:34.172Z,15.80
2022-10-27T10:08:22.613Z,15.80
2022-10-27T10:11:04.502Z,15.80
2022-10-27T10:13:33.078Z,15.80
2022-10-27T10:16:07.738Z,15.80
2022-10-27T10:18:38.757Z,15.80
2022-10-27T10:21:08.869Z,15.90
2022-10-27T10:23:39.869Z,15.90
2022-10-27T10:26:17.431Z,15.90
2022-10-27T10:28:44.804Z,15.90
2022-10-27T10:31:15.111Z,15.90
2022-10-27T10:33:45.455Z,15.90
2022-10-27T10:36:37.838Z,15.90
2022-10-27T10:39:22.975Z,15.90
2022-10-27T10:42:15.146Z,16.00
2022-10-27T10:44:42.121Z,15.90
2022-10-27T10:47:26.809Z,16.00
2022-10-27T10:49:57.300Z,16.00
2022-10-27T10:52:30.125Z,16.00
2022-10-27T10:54:56.691Z,16.10
2022-10-27T10:57:36.969Z,16.10
2022-10-27T11:00:06.417Z,16.10
2022-10-27T11:02:34.832Z,16.20
2022-10-27T11:05:19.520Z,16.20
2022-10-27T11:07:46.761Z,16.20
2022-10-27T11:10:16.353Z,16.30
2022-10-27T11:13:14.478Z,16.30
2022-10-27T11:15:43.950Z,16.30
2022-10-27T11:18:22.257Z,16.30
2022-10-27T11:21:24.113Z,16.40
2022-10-27T11:23:58.432Z,16.40
2022-10-27T11:26:34.268Z,16.40
2022-10-27T11:29:35.309Z,16.50
2022-10-27T11:32:15.473Z,16.50
2022-10-27T11:34:57.226Z,16.60
2022-10-27T11:38:04.044Z,16.60
2022-10-27T11:40:50.433Z,16.70
2022-10-27T11:43:28.313Z,16.70
2022-10-27T11:46:02.325Z,16.80
2022-10-27T11:48:39.771Z,16.80
2022-10-27T11:51:18.402Z,16.80
2022-10-27T11:53:45.070Z,16.90
2022-10-27T11:56:17.637Z,17.00
2022-10-27T11:59:20.984Z,17.00
2022-10-27T12:02:13.285Z,17.10
2022-10-27T12:05:19.820Z,17.20
2022-10-27T12:08:04.222Z,17.30
2022-10-27T12:10:43.867Z,17.30
2022-10-27T12:13:24.570Z,17.30
2022-10-27T12:16:00.876Z,17.30
2022-10-27T12:18:59.126Z,17.40
2022-10-27T12:21:47.560Z,17.30
2022-10-27T12:24:39.836Z,17.40
2022-10-27T12:27:15.316Z,17.40
2022-10-27T12:29:48.494Z,17.40
2022-10-27T12:32:25.306Z,17.40
2022-10-27T12:35:18.916Z,17.40
2022-10-27T12:37:50.456Z,17.50
2022-10-27T12:40:29.999Z,17.50
2022-10-27T12:43:28.589Z,17.50
2022-10-27T12:46:21.253Z,17.50
2022-10-27T12:49:11.989Z,17.60
2022-10-27T12:52:12.048Z,17.60
2022-10-27T12:55:12.414Z,17.70
2022-10-27T12:58:13.422Z,17.70
2022-10-27T13:00:56.022Z,17.80
2022-10-27T13:03:31.504Z,17.80
2022-10-27T13:06:11.026Z,17.90
2022-10-27T13:08:56.314Z,17.90
2022-10-27T13:11:46.309Z,18.00
2022-10-27T13:14:27.772Z,18.10
2022-10-27T13:17:12.839Z,18.10
2022-10-27T13:19:52.243Z,18.10
2022-10-27T13:22:30.946Z,18.20
2022-10-27T13:25:19.730Z,18.20
2022-10-27T13:27:55.868Z,18.20
2022-10-27T13:30:24.601Z,18.30
2022-10-27T13:32:53.557Z,18.30
2022-10-27T13:35:20.766Z,18.40
2022-10-27T13:38:19.006Z,18.40
2022-10-27T13:40:45.941Z,18.40
2022-10-27T13:43:21.778Z,18.50
2022-10-27T13:45:51.079Z,18.50
2022-10-27T13:48:17.602Z,18.60
2022-10-27T13:50:58.753Z,18.60
2022-10-27T13:53:28.350Z,18.60
2022-10-27T13:56:00.009Z,18.70
2022-10-27T13:58:46.335Z,18.70
2022-10-27T14:01:35.512Z,18.70
2022-10-27T14:04:21.603Z,18.80
2022-10-27T14:06:50.644Z,18.80
2022-10-27T14:09:26.851Z,18.80
2022-10-27T14:11:56.450Z,18.80
2022-10-27T14:14:24.955Z,18.80
2022-10-27T14:16:52.610Z,18.80
2022-10-27T14:19:25.019Z,18.80
2022-10-27T14:21:56.255Z,18.90
2022-10-27T14:24:31.091Z,18.90
2022-10-27T14:26:59.008Z,18.90
2022-10-27T14:29:25.622Z,18.90
2022-10-27T14:31:52.481Z,19.00
2022-10-27T14:34:23.155Z,19.00
2022-10-27T14:36:51.123Z,18.90
2022-10-27T14:39:24.026Z,19.00
2022-10-27T14:41:51.906Z,19.00
2022-10-27T14:44:26.172Z,19.00
2022-10-27T14:46:57.230Z,19.10
2022-10-27T14:49:34.629Z,19.10
2022-10-27T14:52:06.012Z,19.10
2022-10-27T14:54:32.843Z,19.10
2022-10-27T14:57:37.174Z,19.10
2022-10-27T15:00:42.447Z,19.10
2022-10-27T15:03:09.463Z,19.10
2022-10-27T15:05:46.077Z,19.10
2022-10-27T15:08:17.523Z,19.10
2022-10-27T15:10:47.170Z,19.00
2022-10-27T15:13:18.436Z,19.00
2022-10-27T15:15:47.782Z,19.00
2022-10-27T15:18:30.979Z,19.00
2022-10-27T15:20:58.723Z,19.00
2022-10-27T15:23:26.183Z,19.00
2022-10-27T15:25:58.429Z,19.00
2022-10-27T15:28:29.742Z,19.00
2022-10-27T15:30:56.713Z,19.00
2022-10-27T15:33:29.103Z,19.00
2022-10-27T15:36:14.739Z,19.00
2022-10-27T15:38:42.937Z,19.00
2022-10-27T15:41:20.423Z,19.00
2022-10-27T15:43:53.618Z,19.00
2022-10-27T15:46:32.416Z,19.00
2022-10-27T15:49:01.929Z,19.00
2022-10-27T15:51:59.642Z,18.90
2022-10-27T15:54:34.690Z,19.00
2022-10-27T15:57:03.211Z,19.00
2022-10-27T15:59:31.592Z,19.00
2022-10-27T16:02:22.542Z,19.00
2022-10-27T16:04:50.182Z,18.90
2022-10-27T16:07:16.832Z,19.00
2022-10-27T16:09:45.295Z,18.90
2022-10-27T16:12:22.292Z,18.90
2022-10-27T16:14:54.528Z,18.90
2022-10-27T16:17:22.735Z,18.90
2022-10-27T16:19:50.044Z,18.90
2022-10-27T16:22:19.631Z,18.90
2022-10-27T16:24:46.678Z,18.90
2022-10-27T16:27:19.718Z,18.90
2022-10-27T16:29:48.543Z,18.90
2022-10-27T16:32:15.070Z,18.80
2022-10-27T16:34:41.565Z,18.80
2022-10-27T16:37:30.236Z,18.80
2022-10-27T16:39:57.122Z,18.80
2022-10-27T16:42:25.341Z,18.70
2022-10-27T16:44:51.904Z,18.70
2022-10-27T16:47:22.378Z,18.70
2022-10-27T16:49:49.242Z,18.70
2022-10-27T16:52:16.152Z,18.70
2022-10-27T16:54:42.854Z,18.70
2022-10-27T16:57:10.045Z,18.70
2022-10-27T16:59:36.712Z,18.70
2022-10-27T17:02:03.385Z,18.70
2022-10-27T17:04:30.036Z,18.70
2022-10-27T17:06:56.641Z,18.70
2022-10-27T17:09:23.215Z,18.70
2022-10-27T17:11:51.624Z,18.70
2022-10-27T17:14:18.253Z,18.60
2022-10-27T17:16:44.931Z,18.60
2022-10-27T17:19:11.497Z,18.60
2022-10-27T17:21:38.005Z,18.60
2022-10-27T17:24:04.875Z,18.60
2022-10-27T17:26:32.507Z,18.60
2022-10-27T17:28:59.923Z,18.60
2022-10-27T17:31:27.534Z,18.60
2022-10-27T17:33:59.772Z,18.50
2022-10-27T17:36:27.325Z,18.50
2022-10-27T17:38:54.297Z,18.50
2022-10-27T17:41:20.918Z,18.50
2022-10-27T17:43:47.800Z,18.50
2022-10-27T17:46:19.205Z,18.50
2022-10-27T17:48:51.862Z,18.50
2022-10-27T17:51:21.460Z,18.40
2022-10-27T17:53:48.813Z,18.50
2022-10-27T17:56:20.948Z,18.40
2022-10-27T17:58:48.609Z,18.40
2022-10-27T18:01:18.351Z,18.40
2022-10-27T18:03:47.256Z,18.40
2022-10-27T18:06:16.005Z,18.40
2022-10-27T18:08:43.490Z,18.40
2022-10-27T18:11:11.505Z,18.40
2022-10-27T18:13:40.379Z,18.30
2022-10-27T18:16:09.329Z,18.30
2022-10-27T18:18:36.671Z,18.30
2022-10-27T18:21:08.836Z,18.30
2022-10-27T18:23:36.412Z,18.30
2022-10-27T18:26:07.995Z,18.30
2022-10-27T18:31:09.963Z,18.20
2022-10-27T18:33:36.668Z,18.20
2022-10-27T18:36:12.422Z,18.20
2022-10-27T18:38:39.050Z,18.20
2022-10-27T18:41:08.883Z,18.20
2022-10-27T18:43:35.577Z,18.20
2022-10-27T18:46:07.018Z,18.20
2022-10-27T18:48:36.166Z,18.20
2022-10-27T18:51:05.522Z,18.20
2022-10-27T18:53:32.538Z,18.20
2022-10-27T18:56:04.950Z,18.10
2022-10-27T18:58:32.195Z,18.20
2022-10-27T19:01:13.070Z,18.20
2022-10-27T19:03:41.035Z,18.10
2022-10-27T19:06:09.788Z,18.10
2022-10-27T19:08:36.759Z,18.10
2022-10-27T19:11:04.491Z,18.10
2022-10-27T19:13:31.474Z,18.10
2022-10-27T19:16:06.452Z,18.10
2022-10-27T19:18:33.457Z,18.10
2022-10-27T19:21:02.003Z,18.10
2022-10-27T19:23:29.037Z,18.10
2022-10-27T19:26:13.419Z,18.10
2022-10-27T19:28:41.402Z,18.00
2022-10-27T19:31:14.490Z,18.00
2022-10-27T19:33:44.023Z,18.00
2022-10-27T19:36:13.628Z,18.00
2022-10-27T19:38:40.813Z,18.00
2022-10-27T19:41:17.227Z,18.00
2022-10-27T19:43:47.207Z,18.00
2022-10-27T19:46:17.569Z,18.00
2022-10-27T19:48:44.374Z,18.00
2022-10-27T19:51:15.511Z,18.00
2022-10-27T19:53:43.875Z,18.00
2022-10-27T19:56:11.189Z,17.90
2022-10-27T19:58:37.851Z,18.00
2022-10-27T20:01:30.533Z,17.90
2022-10-27T20:04:03.209Z,17.90
2022-10-27T20:06:29.959Z,17.90
2022-10-27T20:08:56.764Z,17.90
2022-10-27T20:11:26.169Z,17.90
2022-10-27T20:13:55.432Z,17.90
2022-10-27T20:16:25.810Z,17.90
2022-10-27T20:18:53.146Z,17.90
2022-10-27T20:21:20.577Z,17.90
2022-10-27T20:23:47.345Z,17.90
2022-10-27T20:26:30.897Z,17.90
2022-10-27T20:29:01.409Z,17.90
2022-10-27T20:31:28.917Z,17.80
2022-10-27T20:33:56.231Z,17.90
2022-10-27T20:36:23.429Z,17.90
2022-10-27T20:38:50.342Z,17.90
2022-10-27T20:41:20.231Z,17.90
2022-10-27T20:43:47.126Z,17.90
2022-10-27T20:46:13.926Z,17.90
2022-10-27T20:48:43.303Z,17.90
2022-10-27T20:51:15.204Z,17.90
2022-10-27T20:53:41.923Z,17.90
2022-10-27T20:56:15.600Z,17.90
2022-10-27T20:58:42.187Z,17.80
2022-10-27T21:01:17.755Z,17.80
2022-10-27T21:03:44.365Z,17.80
2022-10-27T21:06:10.911Z,17.80
2022-10-27T21:08:37.515Z,17.80
2022-10-27T21:11:04.559Z,17.80
2022-10-27T21:13:31.105Z,17.80
2022-10-27T21:15:59.486Z,17.80
2022-10-27T21:18:26.910Z,17.80
2022-10-27T21:20:53.465Z,17.80
2022-10-27T21:23:20.058Z,17.70
2022-10-27T21:25:46.773Z,17.70
2022-10-27T21:28:13.651Z,17.70
2022-10-27T21:30:40.226Z,17.70
2022-10-27T21:33:06.761Z,17.70
2022-10-27T21:35:33.301Z,17.70
2022-10-27T21:38:01.085Z,17.70
2022-10-27T21:40:27.706Z,17.70
2022-10-27T21:42:57.377Z,17.70
2022-10-27T21:45:24.107Z,17.70
2022-10-27T21:47:50.932Z,17.70
2022-10-27T21:50:17.783Z,17.60
2022-10-27T21:52:44.480Z,17.60
2022-10-27T21:55:11.060Z,17.60
2022-10-27T21:57:37.563Z,17.60
2022-10-27T22:00:05.476Z,17.60
2022-10-27T22:02:32.012Z,17.60
2022-10-27T22:04:58.606Z,17.60
2022-10-27T22:07:25.572Z,17.60
2022-10-27T22:09:52.132Z,17.50
2022-10-27T22:12:18.646Z,17.50
2022-10-27T22:14:45.167Z,17.50
2022-10-27T22:17:11.733Z,17.50
2022-10-27T22:19:38.408Z,17.50
2022-10-27T22:22:04.997Z,17.50
2022-10-27T22:24:31.573Z,17.50
2022-10-27T22:26:58.081Z,17.50
2022-10-27T22:29:24.640Z,17.40
2022-10-27T22:31:51.227Z,17.40
2022-10-27T22:34:17.877Z,17.40
2022-10-27T22:36:44.407Z,17.40
2022-10-27T22:39:12.392Z,17.40
2022-10-27T22:41:39.011Z,17.40
2022-10-27T22:44:06.329Z,17.40
2022-10-27T22:46:34.259Z,17.40
2022-10-27T22:49:00.944Z,17.40
2022-10-27T22:51:28.532Z,17.40
2022-10-27T22:53:56.706Z,17.40
2022-10-27T22:56:27.182Z,17.40
2022-10-27T22:58:55.814Z,17.40
2022-10-27T23:01:31.634Z,17.30
2022-10-27T23:04:00.888Z,17.30
2022-10-27T23:06:29.902Z,17.30
2022-10-27T23:08:58.735Z,17.30
2022-10-27T23:11:28.866Z,17.30
2022-10-27T23:13:55.404Z,17.30
2022-10-27T23:16:22.085Z,17.30
2022-10-27T23:18:48.658Z,17.30
2022-10-27T23:21:16.431Z,17.30
2022-10-27T23:23:43.539Z,17.20
2022-10-27T23:26:21.086Z,17.20
2022-10-27T23:28:52.286Z,17.20
2022-10-27T23:31:19.615Z,17.20
2022-10-27T23:33:46.842Z,17.20
2022-10-27T23:36:13.686Z,17.20
2022-10-27T23:38:40.262Z,17.20
2022-10-27T23:41:06.821Z,17.20
2022-10-27T23:43:33.353Z,17.20
2022-10-27T23:46:07.678Z,17.20
2022-10-27T23:48:35.427Z,17.10
2022-10-27T23:51:02.760Z,17.10
2022-10-27T23:53:30.746Z,17.10
2022-10-27T23:56:02.509Z,17.10
2022-10-27T23:58:30.610Z,17.10
